Novomar — 5BCT2 — position and weather

sailwx.info

Track history (hours):
 
Tides and Currents Weather Stations Pressure Air Temp Water Temp Dewpoint Dewpoint Depression Visibility Wind Speed Wind Dir Waves Ship Positions

Novomar

Last reported at 2014-Aug-26 06:33 UTC. Time now 2014-Sep-03 00:03 UTC.
Position N 55°30' E 015°21'.

Length 89 m; draft 3.2 m.

Type: Cargo ship. MMSI: 210974000.

Date/timePositionNaut miles runAvg speedWind from/ knotsBaromVisibWave heightAir tempDewpointWater temp
2014-Aug-26 06:33N 55°30' E 015°21'1110.9
2014-Aug-26 05:33N 55°26' E 015°02'1211.1
2014-Aug-26 04:29N 55°23' E 014°42'1010.8
2014-Aug-26 03:33N 55°17' E 014°29'5410.4
2014-Aug-25 22:22N 55°14' E 012°55'7 9.0
2014-Aug-25 21:34N 55°17' E 012°43'8 8.4
2014-Aug-25 20:33N 55°25' E 012°40'1010.4
2014-Aug-25 19:34N 55°35' E 012°42'1111.0
2014-Aug-25 18:33N 55°46' E 012°41'1110.9
2014-Aug-25 17:34N 55°57' E 012°38'10 9.6
2014-Aug-25 16:33N 56°06' E 012°33'6 5.6
2014-Aug-25 15:32N 56°12' E 012°33'0 0.0
2014-Aug-25 14:32N 56°12' E 012°33'0 0.0
2014-Aug-25 13:29N 56°12' E 012°33'0 0.0
2014-Aug-25 12:29N 56°12' E 012°33'0 0.0
2014-Aug-25 11:32N 56°12' E 012°33'0 0.0
2014-Aug-25 10:32N 56°12' E 012°33'0 0.0
2014-Aug-25 09:32N 56°12' E 012°33'0 0.0
2014-Aug-25 08:26N 56°12' E 012°33'0 0.0
2014-Aug-25 07:29N 56°12' E 012°33'0 0.0
2014-Aug-25 06:29N 56°12' E 012°33'0 0.0
2014-Aug-25 05:29N 56°12' E 012°33'0 0.0
2014-Aug-25 04:26N 56°12' E 012°33'0 0.0
2014-Aug-25 03:32N 56°12' E 012°33'0 0.0
2014-Aug-25 02:32N 56°12' E 012°33'0 0.0
2014-Aug-25 01:32N 56°12' E 012°33'0 0.0
2014-Aug-25 00:29N 56°12' E 012°33'0 0.0
2014-Aug-24 23:32N 56°12' E 012°33'0 0.0
2014-Aug-24 22:32N 56°12' E 012°33'0 0.0
2014-Aug-24 21:32N 56°12' E 012°33'0 0.0
2014-Aug-24 20:32N 56°12' E 012°33'0 0.0
2014-Aug-24 19:32N 56°12' E 012°33'0 0.0
2014-Aug-24 18:26N 56°12' E 012°33'0 0.0
2014-Aug-24 17:20N 56°12' E 012°33'0 0.0
2014-Aug-24 16:29N 56°12' E 012°33'0 0.0
2014-Aug-24 15:32N 56°12' E 012°33'0 0.0
2014-Aug-24 14:29N 56°12' E 012°33'0 0.0
2014-Aug-24 13:32N 56°12' E 012°33'0 0.0
2014-Aug-24 12:32N 56°12' E 012°33'0 0.0
2014-Aug-24 11:32N 56°12' E 012°33'0 0.0
2014-Aug-24 10:29N 56°12' E 012°33'0 0.0
2014-Aug-24 09:26N 56°12' E 012°33'0 0.0
2014-Aug-24 08:32N 56°12' E 012°33'0 0.0
2014-Aug-24 07:32N 56°12' E 012°33'0 0.0
2014-Aug-24 06:32N 56°12' E 012°33'0 0.0
2014-Aug-24 05:32N 56°12' E 012°33'0 0.0
2014-Aug-24 04:23N 56°12' E 012°33'0 0.0
2014-Aug-24 03:32N 56°12' E 012°33'0 0.0
2014-Aug-24 02:32N 56°12' E 012°33'0 0.0
2014-Aug-24 01:23N 56°12' E 012°33'0 0.0
2014-Aug-24 00:32N 56°12' E 012°33'0 0.0
2014-Aug-23 23:32N 56°12' E 012°33'0 0.0
2014-Aug-23 22:32N 56°12' E 012°33'0 0.0
2014-Aug-23 21:32N 56°12' E 012°33'0 0.0
2014-Aug-23 20:26N 56°12' E 012°33'0 0.0
2014-Aug-23 19:32N 56°12' E 012°33'7 0.4
2014-Aug-23 03:34N 56°05' E 012°36'7 7.0
2014-Aug-23 02:34N 55°59' E 012°42'7 7.3
2014-Aug-23 01:34N 55°52' E 012°45'7 6.8
2014-Aug-23 00:34N 55°45' E 012°42'9 9.3
2014-Aug-22 23:34N 55°36' E 012°42'8 7.9
2014-Aug-22 22:34N 55°28' E 012°42'8 7.6
2014-Aug-22 21:34N 55°20' E 012°41'7 6.9
2014-Aug-22 20:34N 55°17' E 012°51'7 7.4
2014-Aug-22 19:33N 55°15' E 013°04'7 6.8
2014-Aug-22 18:32N 55°15' E 013°16'88 6.6
2014-Aug-22 05:08N 55°48' E 015°41'4 7.4
2014-Aug-22 04:34N 55°50' E 015°47'10 7.1
2014-Aug-22 03:08N 55°55' E 016°03'4 6.6
2014-Aug-22 02:31N 55°57' E 016°09'6 6.6
2014-Aug-22 01:34N 56°00' E 016°19'63 6.9
2014-Aug-21 16:26N 56°54' E 017°16'6 7.4
2014-Aug-21 15:33N 57°00' E 017°21'8 7.6
2014-Aug-21 14:32N 57°08' E 017°26'7 7.3
2014-Aug-21 13:33N 57°14' E 017°30'7 7.5
2014-Aug-21 12:33N 57°21' E 017°35'  
Track history (hours):
 
Tides and Currents Weather Stations Pressure Air Temp Water Temp Dewpoint Dewpoint Depression Visibility Wind Speed Wind Dir Waves Ship Positions

Novomar

Last reported at 2014-Aug-26 06:33 UTC. Time now 2014-Sep-03 00:03 UTC.
Position N 55°30' E 015°21'.

Length 89 m; draft 3.2 m.

Type: Cargo ship. MMSI: 210974000.

Date/timePositionNaut miles runAvg speedWind from/ knotsBaromVisibWave heightAir tempDewpointWater temp
2014-Aug-26 06:33N 55°30' E 015°21'1110.9
2014-Aug-26 05:33N 55°26' E 015°02'1211.1
2014-Aug-26 04:29N 55°23' E 014°42'1010.8
2014-Aug-26 03:33N 55°17' E 014°29'5410.4
2014-Aug-25 22:22N 55°14' E 012°55'7 9.0
2014-Aug-25 21:34N 55°17' E 012°43'8 8.4
2014-Aug-25 20:33N 55°25' E 012°40'1010.4
2014-Aug-25 19:34N 55°35' E 012°42'1111.0
2014-Aug-25 18:33N 55°46' E 012°41'1110.9
2014-Aug-25 17:34N 55°57' E 012°38'10 9.6
2014-Aug-25 16:33N 56°06' E 012°33'6 5.6
2014-Aug-25 15:32N 56°12' E 012°33'0 0.0
2014-Aug-25 14:32N 56°12' E 012°33'0 0.0
2014-Aug-25 13:29N 56°12' E 012°33'0 0.0
2014-Aug-25 12:29N 56°12' E 012°33'0 0.0
2014-Aug-25 11:32N 56°12' E 012°33'0 0.0
2014-Aug-25 10:32N 56°12' E 012°33'0 0.0
2014-Aug-25 09:32N 56°12' E 012°33'0 0.0
2014-Aug-25 08:26N 56°12' E 012°33'0 0.0
2014-Aug-25 07:29N 56°12' E 012°33'0 0.0
2014-Aug-25 06:29N 56°12' E 012°33'0 0.0
2014-Aug-25 05:29N 56°12' E 012°33'0 0.0
2014-Aug-25 04:26N 56°12' E 012°33'0 0.0
2014-Aug-25 03:32N 56°12' E 012°33'0 0.0
2014-Aug-25 02:32N 56°12' E 012°33'0 0.0
2014-Aug-25 01:32N 56°12' E 012°33'0 0.0
2014-Aug-25 00:29N 56°12' E 012°33'0 0.0
2014-Aug-24 23:32N 56°12' E 012°33'0 0.0
2014-Aug-24 22:32N 56°12' E 012°33'0 0.0
2014-Aug-24 21:32N 56°12' E 012°33'0 0.0
2014-Aug-24 20:32N 56°12' E 012°33'0 0.0
2014-Aug-24 19:32N 56°12' E 012°33'0 0.0
2014-Aug-24 18:26N 56°12' E 012°33'0 0.0
2014-Aug-24 17:20N 56°12' E 012°33'0 0.0
2014-Aug-24 16:29N 56°12' E 012°33'0 0.0
2014-Aug-24 15:32N 56°12' E 012°33'0 0.0
2014-Aug-24 14:29N 56°12' E 012°33'0 0.0
2014-Aug-24 13:32N 56°12' E 012°33'0 0.0
2014-Aug-24 12:32N 56°12' E 012°33'0 0.0
2014-Aug-24 11:32N 56°12' E 012°33'0 0.0
2014-Aug-24 10:29N 56°12' E 012°33'0 0.0
2014-Aug-24 09:26N 56°12' E 012°33'0 0.0
2014-Aug-24 08:32N 56°12' E 012°33'0 0.0
2014-Aug-24 07:32N 56°12' E 012°33'0 0.0
2014-Aug-24 06:32N 56°12' E 012°33'0 0.0
2014-Aug-24 05:32N 56°12' E 012°33'0 0.0
2014-Aug-24 04:23N 56°12' E 012°33'0 0.0
2014-Aug-24 03:32N 56°12' E 012°33'0 0.0
2014-Aug-24 02:32N 56°12' E 012°33'0 0.0
2014-Aug-24 01:23N 56°12' E 012°33'0 0.0
2014-Aug-24 00:32N 56°12' E 012°33'0 0.0
2014-Aug-23 23:32N 56°12' E 012°33'0 0.0
2014-Aug-23 22:32N 56°12' E 012°33'0 0.0
2014-Aug-23 21:32N 56°12' E 012°33'0 0.0
2014-Aug-23 20:26N 56°12' E 012°33'0 0.0
2014-Aug-23 19:32N 56°12' E 012°33'7 0.4
2014-Aug-23 03:34N 56°05' E 012°36'7 7.0
2014-Aug-23 02:34N 55°59' E 012°42'7 7.3
2014-Aug-23 01:34N 55°52' E 012°45'7 6.8
2014-Aug-23 00:34N 55°45' E 012°42'9 9.3
2014-Aug-22 23:34N 55°36' E 012°42'8 7.9
2014-Aug-22 22:34N 55°28' E 012°42'8 7.6
2014-Aug-22 21:34N 55°20' E 012°41'7 6.9
2014-Aug-22 20:34N 55°17' E 012°51'7 7.4
2014-Aug-22 19:33N 55°15' E 013°04'7 6.8
2014-Aug-22 18:32N 55°15' E 013°16'88 6.6
2014-Aug-22 05:08N 55°48' E 015°41'4 7.4
2014-Aug-22 04:34N 55°50' E 015°47'10 7.1
2014-Aug-22 03:08N 55°55' E 016°03'4 6.6
2014-Aug-22 02:31N 55°57' E 016°09'6 6.6
2014-Aug-22 01:34N 56°00' E 016°19'63 6.9
2014-Aug-21 16:26N 56°54' E 017°16'6 7.4
2014-Aug-21 15:33N 57°00' E 017°21'8 7.6
2014-Aug-21 14:32N 57°08' E 017°26'7 7.3
2014-Aug-21 13:33N 57°14' E 017°30'7 7.5
2014-Aug-21 12:33N 57°21' E 017°35'  

Dump ship's entire track history